Login to view Products
 
Thursday, July 18, 2024 (14:46 UTC)
Dubai International Airport
Last Updated: 18-Jul-2024 (14:45Z)
Wind Dir/Speed: NW at 08 kt
Temperature: 36.5°C
Rel. Humidity: 67 %
Pressure: 994.0 hPa
Visibility: 6079 m
  • METAR OMDB 181430Z 31007KT 300V360 6000 NSC 38/28 Q0993 NOSIG
  • TAF OMDB 181100Z 1812/1918 29010KT 7000 NSC BECMG 1816/1818 19005KT PROB30 1900/1904 4000 HZ BECMG 1907/1909 30012KT=
14-- D:\Input Parser\Destinations\Final\11\OMDB_TAF.txt 18/07/2024-- 18/07/2024-- 3